createdAt,value
2023-05-14T00:00:11.254Z,9.30
2023-05-14T00:05:10.268Z,8.98
2023-05-14T00:10:09.458Z,9.13
2023-05-14T00:15:08.950Z,9.65
2023-05-14T00:20:12.188Z,9.18
2023-05-14T00:25:11.241Z,9.80
2023-05-14T00:30:10.641Z,9.70
2023-05-14T00:35:12.502Z,9.30
2023-05-14T00:40:13.075Z,10.48
2023-05-14T00:45:11.870Z,10.13
2023-05-14T00:50:12.240Z,10.52
2023-05-14T00:55:16.409Z,10.32
2023-05-14T01:00:15.750Z,11.65
2023-05-14T01:05:14.755Z,9.75
2023-05-14T01:10:54.983Z,10.05
2023-05-14T01:15:56.711Z,8.98
2023-05-14T01:20:58.569Z,9.65
2023-05-14T01:25:57.310Z,9.45
2023-05-14T01:30:59.174Z,9.40
2023-05-14T01:35:58.641Z,9.02
2023-05-14T01:40:58.571Z,9.43
2023-05-14T01:45:57.428Z,8.60
2023-05-14T01:50:57.204Z,7.75
2023-05-14T01:55:56.174Z,8.75
2023-05-14T02:00:55.006Z,9.18
2023-05-14T02:05:53.831Z,8.25
2023-05-14T02:10:52.740Z,8.60
2023-05-14T02:15:51.818Z,9.98
2023-05-14T02:20:50.584Z,10.50
2023-05-14T02:25:49.371Z,9.20
2023-05-14T02:30:48.365Z,10.00
2023-05-14T02:35:47.128Z,9.13
2023-05-14T02:40:45.891Z,8.75
2023-05-14T02:45:44.726Z,7.78
2023-05-14T02:50:43.968Z,8.68
2023-05-14T02:55:42.969Z,8.70
2023-05-14T03:00:41.763Z,8.10
2023-05-14T03:05:41.054Z,7.72
2023-05-14T03:10:39.796Z,9.27
2023-05-14T03:15:38.686Z,9.23
2023-05-14T03:20:37.964Z,8.55
2023-05-14T03:25:37.967Z,8.40
2023-05-14T03:30:36.943Z,8.07
2023-05-14T03:35:35.920Z,7.50
2023-05-14T03:40:34.874Z,8.25
2023-05-14T03:45:34.087Z,8.15
2023-05-14T03:50:33.073Z,8.27
2023-05-14T03:55:31.904Z,7.82
2023-05-14T04:00:30.952Z,8.15
2023-05-14T04:05:29.692Z,7.93
2023-05-14T04:10:32.269Z,7.57
2023-05-14T04:15:32.312Z,7.35
2023-05-14T04:20:31.200Z,7.30
2023-05-14T04:25:30.521Z,7.93
2023-05-14T04:30:29.758Z,7.38
2023-05-14T04:35:28.835Z,8.15
2023-05-14T04:40:27.835Z,8.32
2023-05-14T04:45:26.845Z,7.47
2023-05-14T04:50:26.125Z,8.52
2023-05-14T04:55:25.044Z,8.20
2023-05-14T05:00:24.187Z,8.40
2023-05-14T05:05:23.858Z,8.65
2023-05-14T05:10:22.988Z,7.93
2023-05-14T05:15:23.291Z,7.63
2023-05-14T05:20:25.122Z,7.40
2023-05-14T05:25:24.211Z,6.93
2023-05-14T05:30:23.258Z,7.93
2023-05-14T05:35:22.202Z,7.60
2023-05-14T05:40:21.114Z,7.05
2023-05-14T05:45:20.004Z,7.13
2023-05-14T05:50:19.956Z,7.75
2023-05-14T05:55:19.235Z,7.50
2023-05-14T06:00:18.988Z,8.25
2023-05-14T06:05:18.896Z,6.78
2023-05-14T06:10:17.934Z,7.35
2023-05-14T06:15:20.116Z,6.57
2023-05-14T06:20:19.339Z,2.38
2023-05-14T06:25:18.553Z,5.07
2023-05-14T06:30:17.375Z,6.32
2023-05-14T06:35:16.225Z,5.75
2023-05-14T06:40:18.083Z,6.10
2023-05-14T06:45:16.967Z,5.75
2023-05-14T06:50:15.798Z,5.63
2023-05-14T06:55:14.673Z,5.93
2023-05-14T07:00:14.607Z,5.22
2023-05-14T07:05:13.556Z,5.50
2023-05-14T07:10:12.797Z,5.75
2023-05-14T07:15:12.321Z,5.45
2023-05-14T07:20:11.629Z,5.28
2023-05-14T07:25:10.567Z,5.57
2023-05-14T07:30:09.627Z,5.70
2023-05-14T07:35:09.106Z,5.15
2023-05-14T07:40:08.498Z,5.30
2023-05-14T07:45:08.890Z,5.50
2023-05-14T07:50:10.695Z,4.85
2023-05-14T07:55:09.893Z,5.70
2023-05-14T08:00:09.273Z,5.18
2023-05-14T08:05:14.254Z,4.95
2023-05-14T08:10:13.048Z,5.05
2023-05-14T08:15:12.435Z,5.10
2023-05-14T08:20:12.061Z,5.03
2023-05-14T08:25:11.084Z,5.53
2023-05-14T08:30:10.322Z,5.45
2023-05-14T08:35:09.372Z,5.80
2023-05-14T08:40:08.835Z,5.13
2023-05-14T08:45:16.953Z,5.47
2023-05-14T08:50:22.701Z,5.57
2023-05-14T08:55:22.597Z,4.50
2023-05-14T09:00:21.701Z,4.90
2023-05-14T09:05:22.147Z,4.15
2023-05-14T09:10:21.559Z,3.80
2023-05-14T09:15:20.552Z,3.70
2023-05-14T09:20:19.848Z,3.78
2023-05-14T09:25:18.601Z,4.65
2023-05-14T09:30:17.760Z,4.10
2023-05-14T09:35:21.749Z,4.40
2023-05-14T09:40:23.653Z,4.07
2023-05-14T09:45:23.296Z,4.20
2023-05-14T09:50:22.303Z,4.38
2023-05-14T09:55:22.142Z,4.40
2023-05-14T10:00:23.219Z,4.10
2023-05-14T10:05:23.640Z,3.97
2023-05-14T10:10:26.872Z,4.20
2023-05-14T10:15:43.638Z,4.32
2023-05-14T10:20:43.229Z,4.35
2023-05-14T10:25:42.528Z,4.07
2023-05-14T10:30:46.290Z,4.60
2023-05-14T10:36:00.511Z,4.25
2023-05-14T10:41:04.404Z,4.47
2023-05-14T10:46:04.317Z,4.20
2023-05-14T10:51:03.312Z,3.83
2023-05-14T10:56:09.288Z,4.93
2023-05-14T11:01:09.233Z,4.03
2023-05-14T11:06:09.356Z,3.63
2023-05-14T11:11:09.694Z,3.53
2023-05-14T11:16:21.547Z,3.67
2023-05-14T11:21:21.805Z,3.78
2023-05-14T11:26:21.725Z,3.83
2023-05-14T11:31:22.359Z,3.80
2023-05-14T11:36:22.020Z,3.20
2023-05-14T11:41:22.879Z,3.15
2023-05-14T11:46:22.519Z,3.10
2023-05-14T11:51:21.597Z,3.03
2023-05-14T11:56:24.641Z,3.00
2023-05-14T12:01:23.768Z,3.00
2023-05-14T12:06:31.552Z,3.03
2023-05-14T12:11:36.055Z,3.33
2023-05-14T12:16:36.815Z,3.45
2023-05-14T12:21:37.681Z,3.45
2023-05-14T12:26:38.715Z,3.10
2023-05-14T12:31:44.788Z,2.40
2023-05-14T12:36:44.350Z,2.53
2023-05-14T12:41:43.104Z,2.70
2023-05-14T12:46:41.970Z,2.38
2023-05-14T12:51:41.033Z,2.65
2023-05-14T12:56:39.882Z,2.58
2023-05-14T13:01:38.832Z,3.95
2023-05-14T13:06:37.841Z,3.38
2023-05-14T13:11:36.596Z,2.80
2023-05-14T13:16:35.693Z,2.92
2023-05-14T13:21:34.603Z,3.03
2023-05-14T13:26:33.639Z,3.08
2023-05-14T13:31:32.563Z,3.40
2023-05-14T13:36:32.317Z,3.50
2023-05-14T13:41:34.936Z,3.60
2023-05-14T13:46:33.848Z,3.50
2023-05-14T13:51:32.731Z,3.45
2023-05-14T13:56:31.632Z,3.20
2023-05-14T14:01:33.400Z,3.30
2023-05-14T14:06:33.269Z,2.97
2023-05-14T14:11:32.140Z,3.13
2023-05-14T14:16:31.179Z,3.08
2023-05-14T14:21:30.035Z,3.10
2023-05-14T14:26:29.289Z,3.33
2023-05-14T14:31:28.204Z,3.33
2023-05-14T14:36:27.000Z,3.33
2023-05-14T14:41:26.662Z,3.38
2023-05-14T14:46:25.499Z,3.10
2023-05-14T14:51:24.543Z,3.33
2023-05-14T14:56:23.667Z,3.05
2023-05-14T15:01:22.966Z,3.45
2023-05-14T15:06:21.758Z,3.40
2023-05-14T15:11:20.929Z,3.22
2023-05-14T15:16:19.755Z,3.20
2023-05-14T15:21:18.591Z,3.55
2023-05-14T15:26:17.388Z,3.22
2023-05-14T15:31:16.504Z,3.30
2023-05-14T15:36:15.390Z,2.97
2023-05-14T15:41:14.387Z,3.13
2023-05-14T15:46:13.279Z,3.42
2023-05-14T15:51:12.730Z,3.92
2023-05-14T15:56:11.656Z,3.20
2023-05-14T16:01:10.519Z,3.33
2023-05-14T16:06:09.999Z,3.75
2023-05-14T16:11:08.825Z,2.30
2023-05-14T16:16:08.348Z,2.17
2023-05-14T16:21:07.180Z,2.60
2023-05-14T16:26:06.459Z,2.45
2023-05-14T16:31:05.253Z,2.85
2023-05-14T16:36:04.126Z,2.40
2023-05-14T16:41:03.308Z,3.50
2023-05-14T16:46:04.806Z,3.03
2023-05-14T16:51:06.863Z,2.72
2023-05-14T16:56:06.718Z,2.78
2023-05-14T17:01:08.694Z,2.58
2023-05-14T17:06:10.092Z,3.40
2023-05-14T17:11:09.245Z,2.75
2023-05-14T17:16:08.240Z,2.72
2023-05-14T17:21:07.565Z,3.40
2023-05-14T17:26:06.505Z,3.83
2023-05-14T17:31:05.454Z,3.25
2023-05-14T17:36:04.440Z,3.90
2023-05-14T17:41:03.200Z,3.90
2023-05-14T17:46:02.162Z,4.40
2023-05-14T17:51:01.180Z,3.97
2023-05-14T17:56:00.152Z,4.15
2023-05-14T18:00:59.093Z,4.40
2023-05-14T18:05:58.798Z,5.10
2023-05-14T18:10:58.600Z,4.68
2023-05-14T18:15:57.625Z,5.20
2023-05-14T18:20:56.596Z,5.70
2023-05-14T18:25:55.787Z,5.97
2023-05-14T18:30:54.605Z,5.85
2023-05-14T18:35:53.697Z,5.88
2023-05-14T18:40:52.567Z,5.47
2023-05-14T18:45:54.493Z,5.40
2023-05-14T18:50:57.652Z,4.95
2023-05-14T18:55:56.563Z,3.85
2023-05-14T19:00:59.073Z,3.25
2023-05-14T19:05:58.176Z,3.13
2023-05-14T19:10:56.946Z,3.45
2023-05-14T19:15:55.996Z,2.83
2023-05-14T19:20:56.628Z,2.65
2023-05-14T19:25:55.568Z,2.95
2023-05-14T19:30:54.500Z,2.60
2023-05-14T19:35:53.479Z,2.53
2023-05-14T19:40:56.876Z,2.40
2023-05-14T19:45:55.736Z,2.20
2023-05-14T19:50:54.515Z,2.53
2023-05-14T19:55:53.252Z,2.53
2023-05-14T20:00:53.341Z,2.72
2023-05-14T20:05:53.395Z,2.70
2023-05-14T20:10:52.366Z,2.67
2023-05-14T20:15:51.406Z,2.50
2023-05-14T20:20:50.200Z,2.70
2023-05-14T20:25:49.009Z,2.53
2023-05-14T20:30:47.833Z,2.50
2023-05-14T20:35:46.623Z,2.63
2023-05-14T20:40:45.585Z,2.90
2023-05-14T20:45:44.352Z,3.17
2023-05-14T20:50:43.532Z,3.20
2023-05-14T20:55:42.428Z,2.70
2023-05-14T21:00:41.279Z,3.05
2023-05-14T21:05:41.560Z,5.32
2023-05-14T21:10:40.412Z,3.45
2023-05-14T21:15:39.371Z,3.20
2023-05-14T21:20:38.254Z,2.90
2023-05-14T21:25:37.043Z,2.50
2023-05-14T21:30:35.763Z,2.70
2023-05-14T21:35:34.538Z,3.10
2023-05-14T21:40:33.260Z,3.13
2023-05-14T21:45:32.260Z,2.95
2023-05-14T21:50:31.247Z,3.15
2023-05-14T21:55:30.059Z,5.90
2023-05-14T22:00:28.962Z,2.90
2023-05-14T22:05:28.076Z,2.83
2023-05-14T22:10:27.012Z,3.08
2023-05-14T22:15:26.211Z,2.95
2023-05-14T22:20:25.334Z,2.67
2023-05-14T22:25:24.679Z,3.30
2023-05-14T22:30:23.837Z,2.35
2023-05-14T22:35:22.815Z,2.50
2023-05-14T22:40:21.855Z,1.85
2023-05-14T22:45:20.624Z,2.40
2023-05-14T22:50:19.324Z,2.08
2023-05-14T22:55:18.171Z,2.20
2023-05-14T23:00:17.191Z,2.42
2023-05-14T23:05:15.942Z,1.77
2023-05-14T23:10:14.825Z,1.80
2023-05-14T23:15:13.754Z,2.25
2023-05-14T23:20:13.001Z,2.20
2023-05-14T23:25:11.769Z,2.17
2023-05-14T23:30:11.006Z,2.00
2023-05-14T23:35:10.395Z,2.30
2023-05-14T23:40:09.866Z,2.45
2023-05-14T23:45:09.041Z,2.08
2023-05-14T23:50:08.506Z,1.95
2023-05-14T23:55:07.671Z,3.30
